sensor_id;sensor_type;location;lat;lon;timestamp;pressure;altitude;pressure_sealevel;temperature;humidity
46710;BME280;32442;51.514;-0.178;2023-04-23T00:02:01;99956.22;;;22.43;41.14
46710;BME280;32442;51.514;-0.178;2023-04-23T00:04:29;99954.22;;;22.43;41.34
46710;BME280;32442;51.514;-0.178;2023-04-23T00:06:59;99958.53;;;22.41;41.58
46710;BME280;32442;51.514;-0.178;2023-04-23T00:09:26;99957.72;;;22.40;41.42
46710;BME280;32442;51.514;-0.178;2023-04-23T00:11:56;99957.72;;;22.40;41.49
46710;BME280;32442;51.514;-0.178;2023-04-23T00:14:23;99953.63;;;22.38;41.33
46710;BME280;32442;51.514;-0.178;2023-04-23T00:16:51;99947.66;;;22.39;41.65
46710;BME280;32442;51.514;-0.178;2023-04-23T00:19:18;99943.50;;;22.37;42.02
46710;BME280;32442;51.514;-0.178;2023-04-23T00:21:47;99945.03;;;22.34;41.95
46710;BME280;32442;51.514;-0.178;2023-04-23T00:24:14;99945.03;;;22.34;42.36
46710;BME280;32442;51.514;-0.178;2023-04-23T00:26:41;99939.75;;;22.33;42.37
46710;BME280;32442;51.514;-0.178;2023-04-23T00:29:08;99943.72;;;22.32;42.72
46710;BME280;32442;51.514;-0.178;2023-04-23T00:31:34;99936.31;;;22.27;42.79
46710;BME280;32442;51.514;-0.178;2023-04-23T00:34:01;99945.91;;;22.26;42.43
46710;BME280;32442;51.514;-0.178;2023-04-23T00:36:31;99939.84;;;22.24;42.47
46710;BME280;32442;51.514;-0.178;2023-04-23T00:38:58;99931.59;;;22.19;42.55
46710;BME280;32442;51.514;-0.178;2023-04-23T00:41:25;99939.53;;;22.17;43.15
46710;BME280;32442;51.514;-0.178;2023-04-23T00:43:54;99939.09;;;22.15;42.72
46710;BME280;32442;51.514;-0.178;2023-04-23T00:46:24;99940.94;;;22.11;43.05
46710;BME280;32442;51.514;-0.178;2023-04-23T00:48:51;99940.13;;;22.10;43.14
46710;BME280;32442;51.514;-0.178;2023-04-23T00:51:19;99941.59;;;22.08;43.16
46710;BME280;32442;51.514;-0.178;2023-04-23T00:53:47;99933.41;;;22.03;43.01
46710;BME280;32442;51.514;-0.178;2023-04-23T00:56:14;99931.25;;;22.00;43.30
46710;BME280;32442;51.514;-0.178;2023-04-23T00:58:43;99927.16;;;21.97;43.24
46710;BME280;32442;51.514;-0.178;2023-04-23T01:01:10;99925.84;;;21.95;43.66
46710;BME280;32442;51.514;-0.178;2023-04-23T01:03:38;99908.78;;;21.91;43.65
46710;BME280;32442;51.514;-0.178;2023-04-23T01:06:07;99920.88;;;21.92;43.39
46710;BME280;32442;51.514;-0.178;2023-04-23T01:08:34;99909.50;;;21.88;43.44
46710;BME280;32442;51.514;-0.178;2023-04-23T01:11:02;99909.50;;;21.88;43.79
46710;BME280;32442;51.514;-0.178;2023-04-23T01:13:29;99906.69;;;21.88;43.37
46710;BME280;32442;51.514;-0.178;2023-04-23T01:15:59;99903.88;;;21.88;43.84
46710;BME280;32442;51.514;-0.178;2023-04-23T01:18:26;99901.38;;;21.87;43.60
46710;BME280;32442;51.514;-0.178;2023-04-23T01:20:54;99902.41;;;21.82;43.56
46710;BME280;32442;51.514;-0.178;2023-04-23T01:23:26;99893.78;;;21.87;43.45
46710;BME280;32442;51.514;-0.178;2023-04-23T01:25:53;99895.50;;;21.80;43.79
46710;BME280;32442;51.514;-0.178;2023-04-23T01:28:21;99891.50;;;21.81;43.90
46710;BME280;32442;51.514;-0.178;2023-04-23T01:30:49;99901.13;;;21.80;43.49
46710;BME280;32442;51.514;-0.178;2023-04-23T01:33:19;99903.78;;;21.76;43.88
46710;BME280;32442;51.514;-0.178;2023-04-23T01:35:46;99898.66;;;21.78;43.84
46710;BME280;32442;51.514;-0.178;2023-04-23T01:38:15;99894.81;;;21.83;43.28
46710;BME280;32442;51.514;-0.178;2023-04-23T01:40:44;99899.81;;;21.77;43.91
46710;BME280;32442;51.514;-0.178;2023-04-23T01:43:11;99898.97;;;21.77;44.06
46710;BME280;32442;51.514;-0.178;2023-04-23T01:45:39;99898.16;;;21.76;43.81
46710;BME280;32442;51.514;-0.178;2023-04-23T01:48:07;99894.53;;;21.76;43.77
46710;BME280;32442;51.514;-0.178;2023-04-23T01:50:34;99894.06;;;21.73;43.67
46710;BME280;32442;51.514;-0.178;2023-04-23T01:53:02;99889.59;;;21.72;44.20
46710;BME280;32442;51.514;-0.178;2023-04-23T01:55:29;99889.59;;;21.72;43.81
46710;BME280;32442;51.514;-0.178;2023-04-23T01:57:57;99891.09;;;21.70;44.05
46710;BME280;32442;51.514;-0.178;2023-04-23T02:00:24;99892.97;;;21.66;44.02
46710;BME280;32442;51.514;-0.178;2023-04-23T02:02:52;99881.72;;;21.66;44.30
46710;BME280;32442;51.514;-0.178;2023-04-23T02:05:23;99877.59;;;21.63;44.40
46710;BME280;32442;51.514;-0.178;2023-04-23T02:07:51;99880.75;;;21.62;44.26
46710;BME280;32442;51.514;-0.178;2023-04-23T02:10:18;99872.66;;;21.60;43.97
46710;BME280;32442;51.514;-0.178;2023-04-23T02:12:48;99881.78;;;21.57;44.52
46710;BME280;32442;51.514;-0.178;2023-04-23T02:15:16;99870.03;;;21.55;44.30
46710;BME280;32442;51.514;-0.178;2023-04-23T02:17:43;99868.88;;;21.56;43.96
46710;BME280;32442;51.514;-0.178;2023-04-23T02:20:11;99870.88;;;21.56;44.09
46710;BME280;32442;51.514;-0.178;2023-04-23T02:22:39;99864.75;;;21.54;44.05
46710;BME280;32442;51.514;-0.178;2023-04-23T02:25:06;99859.50;;;21.52;44.50
46710;BME280;32442;51.514;-0.178;2023-04-23T02:27:34;99860.97;;;21.50;44.58
46710;BME280;32442;51.514;-0.178;2023-04-23T02:30:01;99859.00;;;21.50;44.42
46710;BME280;32442;51.514;-0.178;2023-04-23T02:32:29;99856.06;;;21.47;44.44
46710;BME280;32442;51.514;-0.178;2023-04-23T02:34:56;99861.19;;;21.45;44.45
46710;BME280;32442;51.514;-0.178;2023-04-23T02:37:28;99869.16;;;21.43;44.61
46710;BME280;32442;51.514;-0.178;2023-04-23T02:39:55;99856.75;;;21.44;44.21
46710;BME280;32442;51.514;-0.178;2023-04-23T02:42:22;99861.88;;;21.42;44.61
46710;BME280;32442;51.514;-0.178;2023-04-23T02:44:49;99857.75;;;21.39;44.24
46710;BME280;32442;51.514;-0.178;2023-04-23T02:47:16;99854.13;;;21.39;44.50
46710;BME280;32442;51.514;-0.178;2023-04-23T02:49:43;99859.38;;;21.40;44.48
46710;BME280;32442;51.514;-0.178;2023-04-23T02:52:10;99861.25;;;21.36;44.73
46710;BME280;32442;51.514;-0.178;2023-04-23T02:54:37;99857.59;;;21.36;44.44
46710;BME280;32442;51.514;-0.178;2023-04-23T02:57:05;99855.16;;;21.34;44.58
46710;BME280;32442;51.514;-0.178;2023-04-23T02:59:32;99857.13;;;21.34;44.72
46710;BME280;32442;51.514;-0.178;2023-04-23T03:02:00;99854.97;;;21.30;44.73
46710;BME280;32442;51.514;-0.178;2023-04-23T03:04:27;99860.59;;;21.30;44.69
46710;BME280;32442;51.514;-0.178;2023-04-23T03:06:55;99862.13;;;21.28;44.96
46710;BME280;32442;51.514;-0.178;2023-04-23T03:09:22;99868.91;;;21.27;44.56
46710;BME280;32442;51.514;-0.178;2023-04-23T03:11:50;99861.63;;;21.26;44.84
46710;BME280;32442;51.514;-0.178;2023-04-23T03:14:17;99857.66;;;21.27;44.90
46710;BME280;32442;51.514;-0.178;2023-04-23T03:16:44;99862.81;;;21.25;44.77
46710;BME280;32442;51.514;-0.178;2023-04-23T03:19:11;99857.03;;;21.21;44.83
46710;BME280;32442;51.514;-0.178;2023-04-23T03:21:39;99859.03;;;21.21;44.51
46710;BME280;32442;51.514;-0.178;2023-04-23T03:24:06;99859.03;;;21.21;44.57
46710;BME280;32442;51.514;-0.178;2023-04-23T03:26:33;99859.38;;;21.19;44.64
46710;BME280;32442;51.514;-0.178;2023-04-23T03:29:01;99861.69;;;21.17;44.85
46710;BME280;32442;51.514;-0.178;2023-04-23T03:31:28;99856.41;;;21.16;44.50
46710;BME280;32442;51.514;-0.178;2023-04-23T03:33:55;99851.97;;;21.15;44.82
46710;BME280;32442;51.514;-0.178;2023-04-23T03:36:22;99854.28;;;21.13;44.69
46710;BME280;32442;51.514;-0.178;2023-04-23T03:38:49;99866.00;;;21.15;44.77
46710;BME280;32442;51.514;-0.178;2023-04-23T03:41:17;99856.22;;;21.12;44.64
46710;BME280;32442;51.514;-0.178;2023-04-23T03:43:44;99857.41;;;21.11;44.95
46710;BME280;32442;51.514;-0.178;2023-04-23T03:46:11;99855.75;;;21.10;44.73
46710;BME280;32442;51.514;-0.178;2023-04-23T03:48:38;99865.84;;;21.11;44.82
46710;BME280;32442;51.514;-0.178;2023-04-23T03:51:06;99851.97;;;21.06;44.81
46710;BME280;32442;51.514;-0.178;2023-04-23T03:53:33;99851.97;;;21.06;44.76
46710;BME280;32442;51.514;-0.178;2023-04-23T03:56:02;99856.28;;;21.04;44.82
46710;BME280;32442;51.514;-0.178;2023-04-23T03:58:29;99851.00;;;21.02;45.08
46710;BME280;32442;51.514;-0.178;2023-04-23T04:00:59;99849.81;;;21.03;45.08
46710;BME280;32442;51.514;-0.178;2023-04-23T04:03:26;99850.19;;;21.02;45.03
46710;BME280;32442;51.514;-0.178;2023-04-23T04:05:55;99840.09;;;21.01;45.01
46710;BME280;32442;51.514;-0.178;2023-04-23T04:08:23;99838.13;;;21.01;44.81
46710;BME280;32442;51.514;-0.178;2023-04-23T04:10:52;99842.78;;;20.97;45.09
46710;BME280;32442;51.514;-0.178;2023-04-23T04:13:23;99842.91;;;21.01;45.19
46710;BME280;32442;51.514;-0.178;2023-04-23T04:15:50;99833.19;;;20.98;44.76
46710;BME280;32442;51.514;-0.178;2023-04-23T04:18:17;99838.81;;;20.98;44.68
46710;BME280;32442;51.514;-0.178;2023-04-23T04:20:44;99838.31;;;20.96;44.79
46710;BME280;32442;51.514;-0.178;2023-04-23T04:23:12;99837.03;;;20.94;44.97
46710;BME280;32442;51.514;-0.178;2023-04-23T04:25:39;99835.84;;;20.95;45.03
46710;BME280;32442;51.514;-0.178;2023-04-23T04:28:06;99836.53;;;20.92;45.17
46710;BME280;32442;51.514;-0.178;2023-04-23T04:30:35;99849.03;;;20.94;45.34
46710;BME280;32442;51.514;-0.178;2023-04-23T04:33:02;99838.81;;;20.90;45.46
46710;BME280;32442;51.514;-0.178;2023-04-23T04:35:30;99843.28;;;20.91;45.34
46710;BME280;32442;51.514;-0.178;2023-04-23T04:37:58;99839.66;;;20.90;45.01
46710;BME280;32442;51.514;-0.178;2023-04-23T04:40:25;99834.03;;;20.90;45.32
46710;BME280;32442;51.514;-0.178;2023-04-23T04:42:54;99829.59;;;20.89;45.09
46710;BME280;32442;51.514;-0.178;2023-04-23T04:45:21;99836.38;;;20.88;45.29
46710;BME280;32442;51.514;-0.178;2023-04-23T04:47:49;99826.31;;;20.87;45.30
46710;BME280;32442;51.514;-0.178;2023-04-23T04:50:17;99825.81;;;20.85;45.19
46710;BME280;32442;51.514;-0.178;2023-04-23T04:52:44;99830.63;;;20.84;45.35
46710;BME280;32442;51.514;-0.178;2023-04-23T04:55:11;99831.78;;;20.83;45.30
46710;BME280;32442;51.514;-0.178;2023-04-23T04:57:39;99830.94;;;20.83;45.72
46710;BME280;32442;51.514;-0.178;2023-04-23T05:02:48;99833.63;;;20.79;45.26
46710;BME280;32442;51.514;-0.178;2023-04-23T05:05:16;99839.22;;;20.79;45.53
46710;BME280;32442;51.514;-0.178;2023-04-23T05:07:44;99839.56;;;20.78;45.54
46710;BME280;32442;51.514;-0.178;2023-04-23T05:10:12;99828.66;;;20.76;45.24
46710;BME280;32442;51.514;-0.178;2023-04-23T05:12:40;99834.78;;;20.78;45.26
46710;BME280;32442;51.514;-0.178;2023-04-23T05:15:12;99831.47;;;20.76;45.28
46710;BME280;32442;51.514;-0.178;2023-04-23T05:17:39;99823.72;;;20.73;45.47
46710;BME280;32442;51.514;-0.178;2023-04-23T05:20:07;99828.50;;;20.73;45.58
46710;BME280;32442;51.514;-0.178;2023-04-23T05:22:37;99826.06;;;20.71;45.04
46710;BME280;32442;51.514;-0.178;2023-04-23T05:25:04;99838.44;;;20.70;45.66
46710;BME280;32442;51.514;-0.178;2023-04-23T05:27:32;99829.53;;;20.68;45.23
46710;BME280;32442;51.514;-0.178;2023-04-23T05:30:00;99827.88;;;20.67;45.54
46710;BME280;32442;51.514;-0.178;2023-04-23T05:32:28;99830.69;;;20.67;45.52
46710;BME280;32442;51.514;-0.178;2023-04-23T05:34:55;99828.38;;;20.69;45.36
46710;BME280;32442;51.514;-0.178;2023-04-23T05:37:23;99826.72;;;20.68;45.38
46710;BME280;32442;51.514;-0.178;2023-04-23T05:39:52;99818.97;;;20.65;45.70
46710;BME280;32442;51.514;-0.178;2023-04-23T05:42:23;99817.31;;;20.64;45.68
46710;BME280;32442;51.514;-0.178;2023-04-23T05:44:51;99813.69;;;20.64;45.44
46710;BME280;32442;51.514;-0.178;2023-04-23T05:47:19;99812.03;;;20.63;45.65
46710;BME280;32442;51.514;-0.178;2023-04-23T05:49:47;99818.00;;;20.61;45.48
46710;BME280;32442;51.514;-0.178;2023-04-23T05:52:16;99821.16;;;20.60;45.72
46710;BME280;32442;51.514;-0.178;2023-04-23T05:54:44;99814.25;;;20.57;45.69
46710;BME280;32442;51.514;-0.178;2023-04-23T05:57:11;99810.59;;;20.57;45.82
46710;BME280;32442;51.514;-0.178;2023-04-23T05:59:38;99819.34;;;20.55;45.50
46710;BME280;32442;51.514;-0.178;2023-04-23T06:02:06;99821.31;;;20.55;45.58
46710;BME280;32442;51.514;-0.178;2023-04-23T06:04:34;99828.44;;;20.52;45.64
46710;BME280;32442;51.514;-0.178;2023-04-23T06:07:02;99826.47;;;20.53;45.31
46710;BME280;32442;51.514;-0.178;2023-04-23T06:09:30;99832.91;;;20.53;45.39
46710;BME280;32442;51.514;-0.178;2023-04-23T06:11:57;99826.47;;;20.53;45.74
46710;BME280;32442;51.514;-0.178;2023-04-23T06:14:25;99833.22;;;20.52;45.93
46710;BME280;32442;51.514;-0.178;2023-04-23T06:16:53;99833.56;;;20.50;45.87
46710;BME280;32442;51.514;-0.178;2023-04-23T06:19:21;99830.75;;;20.50;45.89
46710;BME280;32442;51.514;-0.178;2023-04-23T06:21:51;99826.66;;;20.48;45.72
46710;BME280;32442;51.514;-0.178;2023-04-23T06:24:18;99835.06;;;20.48;45.77
46710;BME280;32442;51.514;-0.178;2023-04-23T06:26:46;99829.78;;;20.46;45.89
46710;BME280;32442;51.514;-0.178;2023-04-23T06:29:13;99831.09;;;20.49;45.66
46710;BME280;32442;51.514;-0.178;2023-04-23T06:31:42;99830.59;;;20.47;45.92
46710;BME280;32442;51.514;-0.178;2023-04-23T06:34:14;99832.91;;;20.45;45.63
46710;BME280;32442;51.514;-0.178;2023-04-23T06:36:41;99837.38;;;20.46;45.63
46710;BME280;32442;51.514;-0.178;2023-04-23T06:39:10;99835.72;;;20.45;45.98
46710;BME280;32442;51.514;-0.178;2023-04-23T06:41:38;99835.25;;;20.42;45.91
46710;BME280;32442;51.514;-0.178;2023-04-23T06:44:05;99831.28;;;20.44;45.91
46710;BME280;32442;51.514;-0.178;2023-04-23T06:46:32;99840.84;;;20.42;45.79
46710;BME280;32442;51.514;-0.178;2023-04-23T06:48:59;99844.47;;;20.43;45.62
46710;BME280;32442;51.514;-0.178;2023-04-23T06:51:31;99835.25;;;20.42;45.68
46710;BME280;32442;51.514;-0.178;2023-04-23T06:53:59;99837.53;;;20.40;45.87
46710;BME280;32442;51.514;-0.178;2023-04-23T06:56:27;99831.47;;;20.38;45.57
46710;BME280;32442;51.514;-0.178;2023-04-23T06:58:55;99831.59;;;20.42;45.53
46710;BME280;32442;51.514;-0.178;2023-04-23T07:01:23;99829.31;;;20.44;45.57
46710;BME280;32442;51.514;-0.178;2023-04-23T07:03:52;99829.63;;;20.42;45.88
46710;BME280;32442;51.514;-0.178;2023-04-23T07:06:20;99823.19;;;20.42;45.67
46710;BME280;32442;51.514;-0.178;2023-04-23T07:08:48;99831.28;;;20.44;45.64
46710;BME280;32442;51.514;-0.178;2023-04-23T07:11:23;99832.75;;;20.41;46.13
46710;BME280;32442;51.514;-0.178;2023-04-23T07:14:01;99825.50;;;20.40;45.77
46710;BME280;32442;51.514;-0.178;2023-04-23T07:16:30;99835.09;;;20.39;46.13
46710;BME280;32442;51.514;-0.178;2023-04-23T07:19:00;99826.19;;;20.37;46.10
46710;BME280;32442;51.514;-0.178;2023-04-23T07:21:35;99829.81;;;20.37;45.72
46710;BME280;32442;51.514;-0.178;2023-04-23T07:24:02;99828.16;;;20.36;45.99
46710;BME280;32442;51.514;-0.178;2023-04-23T07:26:33;99835.75;;;20.36;46.00
46710;BME280;32442;51.514;-0.178;2023-04-23T07:29:03;99833.28;;;20.34;46.01
46710;BME280;32442;51.514;-0.178;2023-04-23T07:31:34;99827.69;;;20.34;46.16
46710;BME280;32442;51.514;-0.178;2023-04-23T07:34:07;99829.66;;;20.34;46.04
46710;BME280;32442;51.514;-0.178;2023-04-23T07:36:38;99829.66;;;20.34;46.09
46710;BME280;32442;51.514;-0.178;2023-04-23T07:39:07;99833.28;;;20.34;46.06
46710;BME280;32442;51.514;-0.178;2023-04-23T07:41:40;99830.50;;;20.34;45.99
46710;BME280;32442;51.514;-0.178;2023-04-23T07:44:09;99825.19;;;20.33;45.76
46710;BME280;32442;51.514;-0.178;2023-04-23T07:46:38;99823.53;;;20.32;46.09
46710;BME280;32442;51.514;-0.178;2023-04-23T07:49:09;99825.53;;;20.31;45.69
46710;BME280;32442;51.514;-0.178;2023-04-23T07:51:43;99826.72;;;20.30;45.83
46710;BME280;32442;51.514;-0.178;2023-04-23T07:54:11;99828.34;;;20.31;45.68
46710;BME280;32442;51.514;-0.178;2023-04-23T07:56:38;99831.50;;;20.30;46.17
46710;BME280;32442;51.514;-0.178;2023-04-23T07:59:14;99824.38;;;20.32;46.22
46710;BME280;32442;51.514;-0.178;2023-04-23T08:01:44;99825.88;;;20.30;45.84
46710;BME280;32442;51.514;-0.178;2023-04-23T08:04:15;99826.16;;;20.28;46.33
46710;BME280;32442;51.514;-0.178;2023-04-23T08:06:44;99823.69;;;20.27;46.22
46710;BME280;32442;51.514;-0.178;2023-04-23T08:09:14;99826.50;;;20.27;45.82
46710;BME280;32442;51.514;-0.178;2023-04-23T08:11:54;99827.31;;;20.27;46.32
46710;BME280;32442;51.514;-0.178;2023-04-23T08:14:25;99827.31;;;20.27;46.06
46710;BME280;32442;51.514;-0.178;2023-04-23T08:17:01;99831.50;;;20.30;46.16
46710;BME280;32442;51.514;-0.178;2023-04-23T08:19:34;99831.50;;;20.30;46.53
46710;BME280;32442;51.514;-0.178;2023-04-23T08:22:17;99826.16;;;20.28;46.26
46710;BME280;32442;51.514;-0.178;2023-04-23T08:25:04;99834.09;;;20.26;46.09
46710;BME280;32442;51.514;-0.178;2023-04-23T08:27:37;99830.81;;;20.24;46.20
46710;BME280;32442;51.514;-0.178;2023-04-23T08:30:19;99824.69;;;20.22;45.88
46710;BME280;32442;51.514;-0.178;2023-04-23T08:33:09;99819.91;;;20.23;45.70
46710;BME280;32442;51.514;-0.178;2023-04-23T08:35:40;99824.19;;;20.29;46.05
46710;BME280;32442;51.514;-0.178;2023-04-23T08:38:45;99825.34;;;20.36;45.92
46710;BME280;32442;51.514;-0.178;2023-04-23T08:41:17;99820.38;;;20.42;45.95
46710;BME280;32442;51.514;-0.178;2023-04-23T08:47:10;99817.22;;;20.52;46.03
46710;BME280;32442;51.514;-0.178;2023-04-23T08:49:55;99817.88;;;20.58;46.52
46710;BME280;32442;51.514;-0.178;2023-04-23T08:52:49;99810.88;;;20.64;46.06
46710;BME280;32442;51.514;-0.178;2023-04-23T08:55:29;99817.16;;;20.69;46.03
46710;BME280;32442;51.514;-0.178;2023-04-23T08:58:21;99816.97;;;20.74;46.22
46710;BME280;32442;51.514;-0.178;2023-04-23T09:01:00;99812.00;;;20.80;46.10
46710;BME280;32442;51.514;-0.178;2023-04-23T09:03:27;99807.81;;;20.86;45.96
46710;BME280;32442;51.514;-0.178;2023-04-23T09:05:54;99811.25;;;20.92;46.17
46710;BME280;32442;51.514;-0.178;2023-04-23T09:08:22;99805.91;;;20.99;45.66
46710;BME280;32442;51.514;-0.178;2023-04-23T09:10:49;99807.38;;;21.05;45.94
46710;BME280;32442;51.514;-0.178;2023-04-23T09:13:17;99804.03;;;21.11;45.60
46710;BME280;32442;51.514;-0.178;2023-04-23T09:15:45;99797.91;;;21.18;45.70
46710;BME280;32442;51.514;-0.178;2023-04-23T09:18:12;99806.63;;;21.25;45.24
46710;BME280;32442;51.514;-0.178;2023-04-23T09:20:39;99799.63;;;21.31;45.11
46710;BME280;32442;51.514;-0.178;2023-04-23T09:23:06;99799.41;;;21.36;45.28
46710;BME280;32442;51.514;-0.178;2023-04-23T09:25:34;99801.69;;;21.43;45.10
46710;BME280;32442;51.514;-0.178;2023-04-23T09:28:02;99801.13;;;21.49;44.83
46710;BME280;32442;51.514;-0.178;2023-04-23T09:33:10;99799.22;;;21.62;44.48
46710;BME280;32442;51.514;-0.178;2023-04-23T09:35:38;99799.50;;;21.69;44.38
46710;BME280;32442;51.514;-0.178;2023-04-23T09:38:06;99796.13;;;21.76;44.56
46710;BME280;32442;51.514;-0.178;2023-04-23T09:40:33;99790.28;;;21.81;44.53
46710;BME280;32442;51.514;-0.178;2023-04-23T09:43:02;99796.50;;;21.86;44.56
46710;BME280;32442;51.514;-0.178;2023-04-23T09:45:30;99790.69;;;21.91;44.04
46710;BME280;32442;51.514;-0.178;2023-04-23T09:47:58;99785.69;;;21.97;44.08
46710;BME280;32442;51.514;-0.178;2023-04-23T09:53:03;99792.38;;;22.04;43.64
46710;BME280;32442;51.514;-0.178;2023-04-23T09:55:31;99793.69;;;22.07;43.74
46710;BME280;32442;51.514;-0.178;2023-04-23T09:58:02;99792.16;;;22.09;43.43
46710;BME280;32442;51.514;-0.178;2023-04-23T10:00:32;99788.66;;;22.12;43.34
46710;BME280;32442;51.514;-0.178;2023-04-23T10:02:59;99784.34;;;22.15;43.71
46710;BME280;32442;51.514;-0.178;2023-04-23T10:05:27;99780.00;;;22.17;43.23
46710;BME280;32442;51.514;-0.178;2023-04-23T10:08:06;99778.84;;;22.18;43.29
46710;BME280;32442;51.514;-0.178;2023-04-23T10:10:33;99783.75;;;22.22;43.15
46710;BME280;32442;51.514;-0.178;2023-04-23T10:13:19;99783.09;;;22.25;43.40
46710;BME280;32442;51.514;-0.178;2023-04-23T10:15:46;99779.09;;;22.26;42.99
46710;BME280;32442;51.514;-0.178;2023-04-23T10:18:14;99783.19;;;22.28;42.86
46710;BME280;32442;51.514;-0.178;2023-04-23T10:20:41;99772.81;;;22.08;40.97
46710;BME280;32442;51.514;-0.178;2023-04-23T10:23:08;99782.75;;;21.72;40.45
46710;BME280;32442;51.514;-0.178;2023-04-23T10:25:37;99774.47;;;21.55;40.91
46710;BME280;32442;51.514;-0.178;2023-04-23T10:28:05;99778.78;;;21.32;41.16
46710;BME280;32442;51.514;-0.178;2023-04-23T10:30:34;99770.97;;;21.17;41.02
46710;BME280;32442;51.514;-0.178;2023-04-23T10:33:01;99767.97;;;21.22;40.59
46710;BME280;32442;51.514;-0.178;2023-04-23T10:35:36;99766.03;;;21.14;40.38
46710;BME280;32442;51.514;-0.178;2023-04-23T10:38:03;99764.16;;;20.97;41.00
46710;BME280;32442;51.514;-0.178;2023-04-23T10:40:31;99766.25;;;20.79;41.21
46710;BME280;32442;51.514;-0.178;2023-04-23T10:42:59;99763.03;;;20.90;41.00
46710;BME280;32442;51.514;-0.178;2023-04-23T10:45:29;99765.78;;;20.69;41.34
46710;BME280;32442;51.514;-0.178;2023-04-23T10:47:56;99770.31;;;20.61;41.00
46710;BME280;32442;51.514;-0.178;2023-04-23T10:50:26;99763.81;;;20.31;41.39
46710;BME280;32442;51.514;-0.178;2023-04-23T10:52:53;99760.19;;;20.31;41.29
46710;BME280;32442;51.514;-0.178;2023-04-23T10:55:25;99752.22;;;20.41;41.60
46710;BME280;32442;51.514;-0.178;2023-04-23T11:00:41;99747.91;;;20.53;42.23
46710;BME280;32442;51.514;-0.178;2023-04-23T11:05:47;99746.91;;;20.78;42.30
46710;BME280;32442;51.514;-0.178;2023-04-23T11:08:14;99754.13;;;20.88;42.35
46710;BME280;32442;51.514;-0.178;2023-04-23T11:13:23;99749.84;;;21.11;42.48
46710;BME280;32442;51.514;-0.178;2023-04-23T11:18:27;99744.81;;;21.25;42.34
46710;BME280;32442;51.514;-0.178;2023-04-23T11:20:55;99749.53;;;21.33;42.30
46710;BME280;32442;51.514;-0.178;2023-04-23T11:23:28;99750.63;;;21.41;41.95
46710;BME280;32442;51.514;-0.178;2023-04-23T11:25:55;99748.09;;;21.48;42.25
46710;BME280;32442;51.514;-0.178;2023-04-23T11:28:23;99739.47;;;21.53;42.03
46710;BME280;32442;51.514;-0.178;2023-04-23T11:30:50;99740.88;;;21.59;42.35
46710;BME280;32442;51.514;-0.178;2023-04-23T11:33:19;99743.47;;;21.64;42.02
46710;BME280;32442;51.514;-0.178;2023-04-23T11:35:47;99740.44;;;21.69;42.24
46710;BME280;32442;51.514;-0.178;2023-04-23T11:38:14;99744.22;;;21.73;42.28
46710;BME280;32442;51.514;-0.178;2023-04-23T11:40:41;99740.03;;;21.79;42.25
46710;BME280;32442;51.514;-0.178;2023-04-23T11:43:11;99735.00;;;21.85;41.93
46710;BME280;32442;51.514;-0.178;2023-04-23T11:45:44;99735.13;;;21.88;41.97
46710;BME280;32442;51.514;-0.178;2023-04-23T11:48:11;99732.31;;;21.88;42.36
46710;BME280;32442;51.514;-0.178;2023-04-23T11:50:38;99736.56;;;21.94;41.85
46710;BME280;32442;51.514;-0.178;2023-04-23T11:53:08;99737.88;;;21.97;41.84
46710;BME280;32442;51.514;-0.178;2023-04-23T11:55:36;99738.72;;;21.97;42.35
46710;BME280;32442;51.514;-0.178;2023-04-23T11:58:04;99741.97;;;21.99;42.25
46710;BME280;32442;51.514;-0.178;2023-04-23T12:00:31;99740.81;;;22.00;41.86
46710;BME280;32442;51.514;-0.178;2023-04-23T12:02:59;99741.75;;;22.04;42.24
46710;BME280;32442;51.514;-0.178;2023-04-23T12:08:04;99743.75;;;22.04;41.86
46710;BME280;32442;51.514;-0.178;2023-04-23T12:10:32;99741.41;;;22.06;41.87
46710;BME280;32442;51.514;-0.178;2023-04-23T12:12:59;99740.72;;;22.09;42.35
46710;BME280;32442;51.514;-0.178;2023-04-23T12:15:26;99737.91;;;22.09;42.40
46710;BME280;32442;51.514;-0.178;2023-04-23T12:18:07;99742.84;;;22.12;42.44
46710;BME280;32442;51.514;-0.178;2023-04-23T12:20:40;99747.16;;;22.09;42.46
46710;BME280;32442;51.514;-0.178;2023-04-23T12:23:07;99744.84;;;22.11;42.50
46710;BME280;32442;51.514;-0.178;2023-04-23T12:25:40;99742.84;;;22.12;42.12
46710;BME280;32442;51.514;-0.178;2023-04-23T12:28:08;99741.66;;;22.13;41.93
46710;BME280;32442;51.514;-0.178;2023-04-23T12:30:41;99734.41;;;22.12;41.83
46710;BME280;32442;51.514;-0.178;2023-04-23T12:33:10;99743.66;;;22.12;41.96
46710;BME280;32442;51.514;-0.178;2023-04-23T12:35:41;99733.59;;;22.11;42.17
46710;BME280;32442;51.514;-0.178;2023-04-23T12:38:20;99737.56;;;22.10;42.18
46710;BME280;32442;51.514;-0.178;2023-04-23T12:40:49;99741.19;;;22.11;41.93
46710;BME280;32442;51.514;-0.178;2023-04-23T12:43:17;99738.72;;;22.09;41.83
46710;BME280;32442;51.514;-0.178;2023-04-23T12:45:44;99743.06;;;22.07;41.88
46710;BME280;32442;51.514;-0.178;2023-04-23T12:48:12;99745.41;;;22.05;41.91
46710;BME280;32442;51.514;-0.178;2023-04-23T12:50:39;99736.00;;;22.01;41.99
46710;BME280;32442;51.514;-0.178;2023-04-23T12:53:06;99742.81;;;22.00;42.15
46710;BME280;32442;51.514;-0.178;2023-04-23T12:55:34;99745.16;;;21.98;42.03
46710;BME280;32442;51.514;-0.178;2023-04-23T12:58:02;99751.44;;;21.95;42.19
46710;BME280;32442;51.514;-0.178;2023-04-23T13:00:28;99749.84;;;21.94;42.21
46710;BME280;32442;51.514;-0.178;2023-04-23T13:02:56;99748.03;;;21.89;42.58
46710;BME280;32442;51.514;-0.178;2023-04-23T13:05:26;99748.81;;;21.90;42.37
46710;BME280;32442;51.514;-0.178;2023-04-23T13:07:53;99742.25;;;21.86;42.58
46710;BME280;32442;51.514;-0.178;2023-04-23T13:10:20;99752.69;;;21.85;42.47
46710;BME280;32442;51.514;-0.178;2023-04-23T13:12:48;99741.91;;;21.87;42.37
46710;BME280;32442;51.514;-0.178;2023-04-23T13:15:15;99745.06;;;21.86;42.55
46710;BME280;32442;51.514;-0.178;2023-04-23T13:17:44;99746.25;;;21.85;42.17
46710;BME280;32442;51.514;-0.178;2023-04-23T13:20:11;99743.78;;;21.83;42.61
46710;BME280;32442;51.514;-0.178;2023-04-23T13:22:38;99748.47;;;21.79;42.46
46710;BME280;32442;51.514;-0.178;2023-04-23T13:25:06;99740.84;;;21.80;42.66